Time;durP1;ratioP1;P1;durP2;ratioP2;P2;SDS_P1;SDS_P2;PMS_P1;PMS_P2;Temp;Humidity;BMP_temperature;BMP_pressure;BME280_temperature;BME280_humidity;BME280_pressure;Samples;Min_cycle;Max_cycle;Signal;HPM_P1;HPM_P2
2022/01/14 00:01:45;;;;;;;23.38;13.48;;;;;;;2.63;78.45;99161.36;1727887;82;21364;-56
2022/01/14 00:04:12;;;;;;;32.88;15.60;;;;;;;2.60;78.46;99156.94;1712391;83;21530;-56
2022/01/14 00:06:39;;;;;;;31.33;16.67;;;;;;;2.57;78.60;99168.05;1725813;82;21025;-56
2022/01/14 00:09:08;;;;;;;29.18;14.75;;;;;;;2.53;78.62;99176.46;1736996;82;21008;-56
2022/01/14 00:11:41;;;;;;;35.28;18.37;;;;;;;2.49;78.65;99173.06;1729348;82;20995;-56
2022/01/14 00:14:20;;;;;;;29.55;15.10;;;;;;;2.48;78.63;99168.73;1712457;83;21005;-56
2022/01/14 00:16:37;;;;;;;25.95;14.93;;;;;;;2.43;78.71;99166.64;1726512;82;22621;-56
2022/01/14 00:19:04;;;;;;;31.25;16.87;;;;;;;2.41;78.75;99166.55;1737050;82;21033;-56
2022/01/14 00:21:37;;;;;;;32.75;16.62;;;;;;;2.37;78.79;99159.92;1724243;82;33636;-56
2022/01/14 00:24:08;;;;;;;30.97;15.72;;;;;;;2.33;78.99;99160.84;1712396;82;21020;-56
2022/01/14 00:32:14;;;;;;;32.35;15.18;;;;;;;2.24;79.09;99172.22;1679545;82;21067;-56
2022/01/14 00:34:35;;;;;;;27.75;13.25;;;;;;;2.24;79.22;99169.55;1719772;82;21541;-56
2022/01/14 00:37:03;;;;;;;23.75;12.85;;;;;;;2.25;79.27;99166.36;1709835;82;21003;-56
2022/01/14 00:39:30;;;;;;;32.20;16.37;;;;;;;2.25;79.18;99165.84;1712873;83;21097;-55
2022/01/14 00:41:57;;;;;;;28.40;14.20;;;;;;;2.26;79.28;99163.99;1712293;82;21419;-56
2022/01/14 00:44:24;;;;;;;24.75;13.80;;;;;;;2.28;79.31;99157.92;1712268;83;20994;-56
2022/01/14 00:46:51;;;;;;;24.00;11.95;;;;;;;2.27;79.33;99158.95;1700356;83;20976;-56
2022/01/14 00:49:20;;;;;;;23.42;11.60;;;;;;;2.28;79.39;99161.94;1763059;80;21215;-56
2022/01/14 00:51:47;;;;;;;;;;;;;;;2.27;79.45;99162.97;1731849;80;20998;-56
2022/01/14 00:54:15;;;;;;;25.90;11.85;;;;;;;2.25;79.46;99153.81;1712482;83;20970;-55
2022/01/14 00:59:16;;;;;;;26.97;12.25;;;;;;;2.21;79.35;99159.22;1712313;83;21006;-56
2022/01/14 01:01:50;;;;;;;27.60;14.85;;;;;;;2.18;79.44;99159.63;1726149;82;21001;-56
2022/01/14 01:04:26;;;;;;;28.95;12.88;;;;;;;2.15;79.53;99158.70;1735751;82;21099;-56
2022/01/14 01:06:52;;;;;;;23.65;12.55;;;;;;;2.13;79.56;99160.72;1736513;82;22097;-56
2022/01/14 01:09:21;;;;;;;25.65;13.78;;;;;;;2.11;79.39;99156.61;1736831;82;21555;-56
2022/01/14 01:11:54;;;;;;;22.80;11.85;;;;;;;2.08;79.56;99161.02;1726619;82;21020;-56
2022/01/14 01:14:25;;;;;;;23.12;12.37;;;;;;;2.09;79.59;99173.37;1707285;83;21488;-56
2022/01/14 01:16:48;;;;;;;23.57;11.75;;;;;;;2.08;79.55;99171.20;1718905;82;21020;-56
2022/01/14 01:19:15;;;;;;;22.85;11.43;;;;;;;2.06;79.65;99175.93;1736945;82;22021;-56
2022/01/14 01:21:42;;;;;;;22.67;10.58;;;;;;;2.06;79.66;99182.62;1736776;82;21519;-56
2022/01/14 01:24:10;;;;;;;22.65;12.13;;;;;;;2.08;79.56;99181.08;1736935;82;21610;-56
2022/01/14 01:26:40;;;;;;;22.73;13.20;;;;;;;2.04;79.58;99184.64;1737117;82;21789;-56
2022/01/14 01:31:42;;;;;;;43.95;20.95;;;;;;;1.88;79.98;99172.43;1736844;82;22091;-55
2022/01/14 01:34:23;;;;;;;42.80;19.85;;;;;;;1.81;79.70;99160.86;1715771;82;21020;-56
2022/01/14 01:36:53;;;;;;;33.73;17.57;;;;;;;1.81;79.87;99166.72;1731791;82;21008;-56
2022/01/14 01:39:24;;;;;;;32.23;15.68;;;;;;;1.84;79.91;99160.46;1736943;82;21021;-56
2022/01/14 01:41:54;;;;;;;21.77;12.13;;;;;;;1.89;80.08;99158.04;1730092;82;21103;-56
2022/01/14 01:44:22;;;;;;;27.27;15.28;;;;;;;1.98;80.12;99144.83;1736991;82;21414;-57
2022/01/14 01:46:50;;;;;;;37.78;19.73;;;;;;;1.93;79.84;99149.92;1726747;82;20995;-56
2022/01/14 01:49:20;;;;;;;38.58;19.32;;;;;;;1.80;80.58;99153.88;1763137;80;21029;-56
2022/01/14 01:51:48;;;;;;;37.95;16.87;;;;;;;1.75;80.42;99163.48;1745899;80;21060;-56
2022/01/14 01:54:16;;;;;;;35.90;17.35;;;;;;;1.77;80.23;99166.27;1737075;82;21020;-56
2022/01/14 01:56:44;;;;;;;19.27;10.70;;;;;;;1.74;80.06;99169.34;1736600;82;21393;-56
2022/01/14 01:59:11;;;;;;;17.15;10.58;;;;;;;1.76;80.43;99171.30;1737025;82;21056;-56
2022/01/14 02:01:39;;;;;;;19.50;10.03;;;;;;;1.85;80.58;99161.28;1728588;82;21031;-56
2022/01/14 02:04:06;;;;;;;18.75;9.23;;;;;;;1.93;80.58;99157.95;1712579;83;20980;-56
2022/01/14 02:06:33;;;;;;;16.73;8.78;;;;;;;2.01;80.42;99174.86;1720999;82;21000;-55
2022/01/14 02:09:00;;;;;;;20.85;10.58;;;;;;;2.03;80.31;99172.30;1736898;82;22106;-56
2022/01/14 02:11:26;;;;;;;20.43;9.65;;;;;;;2.08;80.26;99169.05;1730762;82;21548;-55
2022/01/14 02:13:57;;;;;;;16.70;8.83;;;;;;;2.09;80.01;99166.17;1707616;83;21032;-55
2022/01/14 02:16:34;;;;;;;21.65;11.03;;;;;;;2.09;80.20;99170.69;1708514;82;21443;-56
2022/01/14 02:19:15;;;;;;;18.82;10.50;;;;;;;2.07;80.04;99170.89;1711855;83;21038;-57
2022/01/14 02:24:56;;;;;;;26.87;13.78;;;;;;;1.98;79.95;99158.20;1737121;82;21008;-57
2022/01/14 02:27:00;;;;;;;24.35;12.90;;;;;;;1.98;80.08;99146.16;1726561;82;21056;-57
2022/01/14 02:29:27;;;;;;;23.12;13.58;;;;;;;1.99;80.02;99138.97;1737116;82;21029;-56
2022/01/14 02:31:54;;;;;;;27.80;12.00;;;;;;;2.02;80.17;99149.26;1726248;82;21058;-56
2022/01/14 02:34:21;;;;;;;19.23;10.55;;;;;;;2.09;80.24;99149.30;1712644;83;22088;-56
2022/01/14 02:36:48;;;;;;;17.37;10.23;;;;;;;2.09;80.10;99146.11;1712260;82;21474;-56
2022/01/14 02:39:16;;;;;;;24.23;12.40;;;;;;;2.09;80.05;99141.28;1712370;83;21006;-56
2022/01/14 02:41:45;;;;;;;24.33;12.47;;;;;;;1.96;80.28;99140.17;1728254;82;21567;-56
2022/01/14 02:44:23;;;;;;;20.88;12.10;;;;;;;1.94;80.34;99139.55;1737210;82;21432;-56
2022/01/14 02:46:53;;;;;;;25.72;12.33;;;;;;;1.97;80.25;99124.47;1736360;82;22121;-56
2022/01/14 02:49:16;;;;;;;22.90;10.78;;;;;;;1.91;80.24;99127.09;1713948;82;20997;-56
2022/01/14 02:51:43;;;;;;;22.45;11.88;;;;;;;1.92;80.32;99127.41;1720255;82;21371;-56
2022/01/14 02:54:13;;;;;;;23.73;11.65;;;;;;;1.94;80.28;99132.04;1737069;82;21642;-56
2022/01/14 02:56:40;;;;;;;19.87;10.38;;;;;;;1.94;80.34;99128.85;1716828;80;21054;-55
2022/01/14 02:59:07;;;;;;;;;;;;;;;1.97;80.29;99127.66;1715146;83;21666;-56
2022/01/14 03:01:34;;;;;;;18.12;9.75;;;;;;;1.95;80.24;99127.00;1712466;82;20211;-56
2022/01/14 03:04:01;;;;;;;20.17;9.58;;;;;;;1.93;80.23;99123.20;1712693;83;21409;-56
2022/01/14 03:06:28;;;;;;;18.40;9.20;;;;;;;1.94;80.19;99131.52;1724126;82;22002;-56
2022/01/14 03:08:58;;;;;;;21.35;13.30;;;;;;;1.94;80.15;99132.86;1737224;82;21448;-56
2022/01/14 03:11:44;;;;;;;20.85;13.00;;;;;;;1.94;80.09;99126.17;1736792;82;21095;-56
2022/01/14 03:14:14;;;;;;;22.05;10.98;;;;;;;1.94;80.07;99117.34;1737031;82;21476;-57
2022/01/14 03:16:42;;;;;;;18.82;11.28;;;;;;;1.91;80.03;99112.39;1721307;82;21007;-57
2022/01/14 03:19:17;;;;;;;15.72;9.83;;;;;;;1.88;80.04;99104.27;1712669;82;21050;-56
2022/01/14 03:21:42;;;;;;;18.25;9.15;;;;;;;1.86;79.91;99102.80;1727574;82;21028;-56
2022/01/14 03:24:23;;;;;;;20.88;12.55;;;;;;;1.82;79.90;99103.71;1737040;82;21553;-57
2022/01/14 03:26:50;;;;;;;19.05;10.08;;;;;;;1.76;80.09;99099.14;1736892;82;20989;-57
2022/01/14 03:29:18;;;;;;;18.82;10.68;;;;;;;1.75;80.07;99094.00;1737230;82;21013;-56
2022/01/14 03:31:45;;;;;;;18.15;9.03;;;;;;;1.72;80.19;99093.89;1736929;82;21064;-56
2022/01/14 03:34:13;;;;;;;16.27;9.33;;;;;;;1.69;80.18;99084.91;1737090;82;21036;-56
2022/01/14 03:36:40;;;;;;;17.60;9.43;;;;;;;1.68;80.28;99089.95;1723262;82;21340;-57
2022/01/14 03:39:07;;;;;;;20.17;10.93;;;;;;;1.66;80.28;99090.66;1712435;83;21003;-57
2022/01/14 03:41:34;;;;;;;17.80;9.33;;;;;;;1.63;80.46;99089.22;1719917;82;21056;-56
2022/01/14 03:44:01;;;;;;;17.92;9.63;;;;;;;1.64;80.48;99100.22;1737066;82;21383;-56
2022/01/14 03:46:27;;;;;;;15.53;9.03;;;;;;;1.63;80.61;99092.41;1736845;82;21433;-56
2022/01/14 03:48:54;;;;;;;19.15;10.23;;;;;;;1.63;80.58;99093.73;1761819;80;20989;-56
2022/01/14 03:51:23;;;;;;;20.48;10.38;;;;;;;1.62;80.53;99091.58;1751988;80;21071;-57
2022/01/14 03:53:50;;;;;;;18.07;9.40;;;;;;;1.61;80.53;99083.73;1737269;82;21024;-56
2022/01/14 03:56:18;;;;;;;21.40;11.88;;;;;;;1.62;80.56;99085.38;1722055;82;21012;-57
2022/01/14 03:58:45;;;;;;;19.37;10.28;;;;;;;1.60;80.49;99080.75;1736947;82;21072;-56
2022/01/14 04:01:12;;;;;;;23.70;12.63;;;;;;;1.58;80.72;99076.13;1731585;82;21970;-56
2022/01/14 04:03:40;;;;;;;26.85;14.40;;;;;;;1.60;80.67;99066.88;1736968;82;22097;-56
2022/01/14 04:06:07;;;;;;;17.65;11.25;;;;;;;1.61;80.82;99069.86;1736867;82;21008;-56
2022/01/14 04:08:34;;;;;;;13.85;7.55;;;;;;;1.63;80.66;99066.50;1737298;82;21076;-57
2022/01/14 04:11:02;;;;;;;20.75;11.28;;;;;;;1.66;80.77;99068.77;1736726;82;21013;-56
2022/01/14 04:16:13;;;;;;;15.40;5.95;;;;;;;1.64;80.92;99057.46;1736811;82;21024;-56
2022/01/14 04:18:39;;;;;;;19.07;10.13;;;;;;;1.70;80.86;99055.31;1737151;82;21023;-57
2022/01/14 04:21:06;;;;;;;19.85;10.70;;;;;;;1.67;80.76;99052.23;1727594;82;21066;-57
2022/01/14 04:23:33;;;;;;;23.12;11.20;;;;;;;1.62;81.03;99053.31;1712631;83;21439;-56
2022/01/14 04:26:00;;;;;;;21.65;12.37;;;;;;;1.63;81.10;99051.81;1718866;82;21311;-57
2022/01/14 04:28:34;;;;;;;19.07;11.15;;;;;;;1.66;81.21;99054.08;1712555;83;20995;-56
2022/01/14 04:31:00;;;;;;;21.95;12.00;;;;;;;1.69;81.18;99047.50;1719345;82;21567;-57
2022/01/14 04:33:29;;;;;;;17.12;8.60;;;;;;;1.72;81.14;99057.81;1708179;82;21024;-58
2022/01/14 04:35:58;;;;;;;22.32;12.73;;;;;;;1.78;80.93;99052.17;1709236;82;20991;-57
2022/01/14 04:38:27;;;;;;;26.12;14.75;;;;;;;1.76;80.95;99048.87;1737324;82;21437;-56
2022/01/14 04:40:54;;;;;;;21.42;12.63;;;;;;;1.77;81.07;99045.18;1726494;80;20992;-57
2022/01/14 04:43:21;;;;;;;23.30;13.53;;;;;;;1.78;81.03;99039.63;1712692;82;21020;-57
2022/01/14 04:48:22;;;;;;;26.90;16.23;;;;;;;1.82;80.92;99044.09;1740021;80;20998;-57
2022/01/14 04:50:53;;;;;;;23.42;14.20;;;;;;;1.84;80.87;99037.52;1760252;80;22075;-57
2022/01/14 04:53:21;;;;;;;22.55;12.10;;;;;;;1.85;80.81;99045.84;1737376;82;21004;-57
2022/01/14 04:55:49;;;;;;;22.67;13.70;;;;;;;1.87;80.78;99040.29;1736980;82;21258;-57
2022/01/14 04:58:16;;;;;;;24.50;12.30;;;;;;;1.86;80.78;99039.47;1737126;82;21064;-56
2022/01/14 05:00:43;;;;;;;28.62;14.90;;;;;;;1.90;80.86;99027.88;1736835;82;21427;-56
2022/01/14 05:03:10;;;;;;;23.57;11.18;;;;;;;1.91;80.80;99023.67;1737241;82;21382;-57
2022/01/14 05:05:41;;;;;;;20.12;11.68;;;;;;;1.95;80.74;99029.42;1736882;82;21013;-56
2022/01/14 05:08:12;;;;;;;22.80;12.13;;;;;;;1.96;80.56;99029.22;1737231;82;21028;-56
2022/01/14 05:13:21;;;;;;;23.50;12.13;;;;;;;1.98;80.59;99024.52;1737387;82;21071;-55
2022/01/14 05:15:48;;;;;;;21.62;11.95;;;;;;;2.02;80.55;99014.76;1736801;82;21399;-56
2022/01/14 05:18:15;;;;;;;20.85;12.10;;;;;;;2.04;80.53;99016.20;1737188;82;21004;-56
2022/01/14 05:20:42;;;;;;;22.15;12.33;;;;;;;2.07;80.30;99000.28;1736697;82;22123;-56
2022/01/14 05:23:09;;;;;;;25.68;13.65;;;;;;;2.05;80.39;99008.52;1737147;82;21032;-55
2022/01/14 05:25:36;;;;;;;18.98;11.35;;;;;;;2.08;80.39;99008.10;1736944;82;21012;-56
2022/01/14 05:28:03;;;;;;;24.87;12.25;;;;;;;2.08;80.29;99010.77;1737260;82;21060;-55
2022/01/14 05:30:30;;;;;;;20.43;11.90;;;;;;;2.08;80.26;99013.45;1736968;82;21437;-56
2022/01/14 05:32:57;;;;;;;23.77;13.88;;;;;;;2.11;80.30;99005.02;1715467;82;21018;-55
2022/01/14 05:35:26;;;;;;;19.10;12.07;;;;;;;2.12;80.20;99005.84;1712399;82;21396;-56
2022/01/14 05:37:53;;;;;;;;;;;;;;;2.12;80.24;99006.66;1736227;82;21016;-56
2022/01/14 05:40:21;;;;;;;22.93;13.93;;;;;;;2.14;80.26;99008.64;1716524;82;21310;-56
2022/01/14 05:42:48;;;;;;;23.87;14.80;;;;;;;2.16;80.19;98995.89;1705668;82;21056;-56
2022/01/14 05:45:15;;;;;;;26.23;13.55;;;;;;;2.19;80.16;98995.47;1721649;82;21103;-56
2022/01/14 05:47:42;;;;;;;19.52;11.90;;;;;;;2.20;80.06;99001.13;1736143;80;21072;-56
2022/01/14 05:50:12;;;;;;;24.15;12.65;;;;;;;2.22;80.10;98995.57;1765187;80;21063;-56
2022/01/14 05:52:40;;;;;;;22.40;11.05;;;;;;;2.26;80.14;98992.82;1702509;82;21513;-56
2022/01/14 05:55:09;;;;;;;22.30;11.25;;;;;;;2.28;79.96;98984.07;1707370;83;21421;-56
2022/01/14 05:57:38;;;;;;;28.07;13.22;;;;;;;2.28;79.99;98988.08;1691154;82;20996;-56
2022/01/14 06:00:12;;;;;;;24.77;12.47;;;;;;;2.30;79.92;98982.02;1694390;84;28084;-56
2022/01/14 06:02:39;;;;;;;20.57;12.20;;;;;;;2.30;79.94;98970.48;1707863;82;21069;-56
2022/01/14 06:05:07;;;;;;;22.75;13.18;;;;;;;2.29;79.86;98973.69;1707896;82;21369;-56
2022/01/14 06:07:34;;;;;;;22.32;11.85;;;;;;;2.30;79.98;98965.14;1735335;82;21500;-56
2022/01/14 06:10:02;;;;;;;23.20;12.45;;;;;;;2.31;79.89;98955.60;1732880;82;21084;-56
2022/01/14 06:12:29;;;;;;;23.35;13.13;;;;;;;2.32;79.89;98957.77;1715081;82;21058;-56
2022/01/14 06:14:56;;;;;;;21.60;11.45;;;;;;;2.34;79.85;98969.90;1710338;82;20977;-56
2022/01/14 06:17:23;;;;;;;20.20;11.78;;;;;;;2.36;79.76;98973.70;1715761;82;21056;-56
2022/01/14 06:19:50;;;;;;;22.02;12.15;;;;;;;2.36;79.75;98974.52;1723626;82;21024;-56
2022/01/14 06:22:16;;;;;;;18.45;11.43;;;;;;;2.37;79.67;98967.31;1713916;82;20966;-56
2022/01/14 06:24:43;;;;;;;22.70;12.60;;;;;;;2.35;79.62;98960.84;1731811;82;21395;-56
2022/01/14 06:27:10;;;;;;;22.40;11.95;;;;;;;2.35;79.65;98951.99;1737765;82;21021;-56
2022/01/14 06:29:37;;;;;;;34.88;13.28;;;;;;;2.37;79.56;98945.41;1724827;82;21232;-56
2022/01/14 06:32:05;;;;;;;29.50;15.40;;;;;;;2.30;79.53;98945.91;1729995;82;20977;-56
2022/01/14 06:34:32;;;;;;;20.60;12.15;;;;;;;2.28;79.54;98937.78;1737904;82;21525;-56
2022/01/14 06:37:00;;;;;;;21.48;12.58;;;;;;;2.23;79.54;98918.35;1720698;82;20975;-56
2022/01/14 06:39:27;;;;;;;26.77;15.40;;;;;;;2.17;79.56;98928.52;1713625;83;21416;-56
2022/01/14 06:41:54;;;;;;;29.23;16.85;;;;;;;2.15;79.66;98922.05;1729235;82;21382;-56
2022/01/14 06:44:21;;;;;;;26.27;14.73;;;;;;;2.15;79.62;98926.05;1738171;82;20993;-56
2022/01/14 06:46:48;;;;;;;22.62;11.50;;;;;;;2.14;79.70;98929.76;1727828;82;20959;-56
2022/01/14 06:49:15;;;;;;;24.37;14.70;;;;;;;2.14;79.71;98924.92;1763081;80;20962;-55
2022/01/14 06:51:41;;;;;;;22.65;12.58;;;;;;;2.15;79.70;98929.24;1714212;80;21493;-55
2022/01/14 06:54:08;;;;;;;24.70;14.05;;;;;;;2.16;79.72;98929.55;1708648;83;21298;-55
2022/01/14 06:56:38;;;;;;;22.45;13.48;;;;;;;2.18;79.75;98932.84;1725394;82;21067;-55
2022/01/14 06:59:05;;;;;;;27.93;16.60;;;;;;;2.21;79.79;98929.74;1738267;82;21386;-55
2022/01/14 07:01:32;;;;;;;25.57;14.63;;;;;;;2.21;79.72;98935.91;1711481;82;21464;-56
2022/01/14 07:03:59;;;;;;;23.62;13.93;;;;;;;2.24;79.74;98939.54;1713600;83;21439;-56
2022/01/14 07:06:26;;;;;;;26.25;14.68;;;;;;;2.27;79.70;98946.32;1712565;82;21392;-56
2022/01/14 07:08:53;;;;;;;28.40;15.72;;;;;;;2.30;79.71;98961.95;1731618;82;21449;-56
2022/01/14 07:11:25;;;;;;;26.48;12.65;;;;;;;2.33;79.75;98964.24;1711452;82;20971;-55
2022/01/14 07:13:49;;;;;;;26.52;13.60;;;;;;;2.35;79.56;98968.05;1722147;82;20963;-55
2022/01/14 07:16:16;;;;;;;25.25;12.85;;;;;;;2.40;79.69;98956.23;1723866;82;21447;-56
2022/01/14 07:18:45;;;;;;;31.27;14.85;;;;;;;2.48;79.77;98960.87;1714786;82;21462;-56
2022/01/14 07:21:11;;;;;;;24.52;13.28;;;;;;;2.54;79.63;98964.55;1709614;82;20996;-56
2022/01/14 07:23:38;;;;;;;22.73;13.15;;;;;;;2.55;79.61;98967.02;1729547;82;21052;-55
2022/01/14 07:26:05;;;;;;;27.75;15.32;;;;;;;2.58;79.51;98959.13;1719912;82;21488;-56
2022/01/14 07:28:32;;;;;;;23.62;13.05;;;;;;;2.60;79.54;98966.42;1722596;82;21001;-56
2022/01/14 07:30:59;;;;;;;23.85;12.88;;;;;;;2.63;79.32;98964.66;1686770;84;21003;-56
2022/01/14 07:33:26;;;;;;;20.40;11.22;;;;;;;2.60;78.81;98962.41;1685943;84;21007;-57
2022/01/14 07:35:53;;;;;;;17.35;9.93;;;;;;;2.62;78.98;98970.22;1711577;82;21461;-56
2022/01/14 07:38:19;;;;;;;18.85;10.88;;;;;;;2.56;78.86;98974.53;1710642;82;20977;-56
2022/01/14 07:40:46;;;;;;;21.55;12.98;;;;;;;2.60;78.96;98973.63;1715398;82;21048;-56
2022/01/14 07:43:13;;;;;;;27.95;17.23;;;;;;;2.64;79.15;98974.84;1720278;82;21096;-55
2022/01/14 07:45:40;;;;;;;35.30;20.37;;;;;;;2.67;79.03;98979.30;1717931;82;21489;-55
2022/01/14 07:48:07;;;;;;;21.45;11.30;;;;;;;2.66;78.87;98983.00;1723482;80;21615;-55
2022/01/14 07:50:34;;;;;;;20.20;10.70;;;;;;;2.67;78.92;98991.34;1718153;82;21060;-56
2022/01/14 07:53:01;;;;;;;21.77;11.70;;;;;;;2.66;78.73;99001.73;1723729;82;21089;-55
2022/01/14 07:55:28;;;;;;;13.88;8.38;;;;;;;2.60;78.43;98994.52;1709618;82;21710;-55
2022/01/14 07:57:54;;;;;;;23.02;11.55;;;;;;;2.67;78.47;98988.66;1724748;82;21138;-55
2022/01/14 08:00:21;;;;;;;17.12;10.10;;;;;;;2.65;78.66;98990.73;1721252;82;22068;-56
2022/01/14 08:02:48;;;;;;;17.65;9.20;;;;;;;2.64;78.65;98998.94;1714566;82;21433;-56
2022/01/14 08:05:16;;;;;;;23.65;12.25;;;;;;;2.62;78.79;98996.47;1717473;82;21097;-56
2022/01/14 08:07:47;;;;;;;20.95;11.28;;;;;;;2.58;78.73;98996.58;1723296;82;21475;-54
2022/01/14 08:10:14;;;;;;;18.90;10.65;;;;;;;2.65;78.64;99000.58;1722456;82;21040;-55
2022/01/14 08:12:41;;;;;;;21.25;11.45;;;;;;;2.54;78.79;99005.52;1719150;82;21044;-55
2022/01/14 08:15:09;;;;;;;19.30;11.28;;;;;;;2.50;78.85;98996.27;1717003;82;20965;-56
2022/01/14 08:17:37;;;;;;;23.77;11.25;;;;;;;2.54;78.92;98989.97;1717614;82;21024;-56
2022/01/14 08:20:05;;;;;;;31.75;13.50;;;;;;;2.58;78.92;98985.88;1726395;82;21622;-56
2022/01/14 08:22:32;;;;;;;21.15;12.78;;;;;;;2.62;78.92;98980.92;1706706;82;21095;-56
2022/01/14 08:24:59;;;;;;;22.45;13.88;;;;;;;2.68;78.94;98973.42;1728715;82;21222;-56
2022/01/14 08:27:26;;;;;;;25.12;13.83;;;;;;;2.72;78.93;98961.27;1663055;85;21091;-54
2022/01/14 08:29:53;;;;;;;29.87;14.85;;;;;;;2.76;78.88;98959.32;1720656;82;21485;-56
2022/01/14 08:32:21;;;;;;;20.23;11.25;;;;;;;2.78;78.71;98955.91;1718352;82;21434;-56
2022/01/14 08:34:49;;;;;;;21.40;11.10;;;;;;;2.77;78.51;98952.11;1719384;82;21438;-56
2022/01/14 08:37:16;;;;;;;21.42;10.90;;;;;;;2.71;78.43;98956.95;1718262;82;21771;-56
2022/01/14 08:39:42;;;;;;;24.27;11.88;;;;;;;2.72;78.57;98961.27;1715318;82;21051;-56
2022/01/14 08:42:10;;;;;;;30.75;17.62;;;;;;;2.74;78.57;98969.94;1713388;82;20968;-56
2022/01/14 08:44:37;;;;;;;34.58;19.52;;;;;;;2.72;78.54;98955.91;1715587;82;21071;-56
2022/01/14 08:47:10;;;;;;;29.35;15.63;;;;;;;2.67;78.65;98958.41;1710227;82;21015;-56
2022/01/14 08:49:34;;;;;;;62.20;29.60;;;;;;;2.67;78.57;98965.91;1724770;82;21088;-55
2022/01/14 08:52:01;;;;;;;80.32;38.00;;;;;;;2.61;78.58;98957.87;1720989;82;21032;-57
2022/01/14 08:54:28;;;;;;;56.02;27.93;;;;;;;2.65;78.57;98953.75;1723765;82;21600;-56
2022/01/14 08:56:55;;;;;;;23.38;14.13;;;;;;;2.68;78.61;98951.50;1720567;82;21481;-56
2022/01/14 08:59:21;;;;;;;24.87;12.25;;;;;;;2.72;78.59;98946.55;1720159;82;21067;-56
2022/01/14 09:01:48;;;;;;;38.95;19.87;;;;;;;2.72;78.59;98931.83;1718943;82;20993;-56
2022/01/14 09:04:15;;;;;;;56.88;23.12;;;;;;;2.76;78.66;98921.84;1700928;82;21647;-56
2022/01/14 09:06:42;;;;;;;34.27;17.98;;;;;;;2.83;78.51;98917.83;1719955;82;22594;-56
2022/01/14 09:09:09;;;;;;;33.25;17.70;;;;;;;2.84;78.28;98915.46;1722006;82;21028;-55
2022/01/14 09:11:36;;;;;;;21.25;10.78;;;;;;;2.89;78.01;98920.17;1711263;82;21063;-56
2022/01/14 09:14:03;;;;;;;6.47;4.17;;;;;;;2.82;78.13;98913.52;1716635;82;21091;-56
2022/01/14 09:16:30;;;;;;;21.77;11.88;;;;;;;2.95;77.97;98914.81;1716248;82;21143;-56
2022/01/14 09:18:56;;;;;;;22.62;13.15;;;;;;;2.87;77.88;98897.63;1713303;82;21020;-56
2022/01/14 09:21:23;;;;;;;25.08;13.83;;;;;;;2.88;78.03;98905.14;1706709;82;22068;-55
2022/01/14 09:23:54;;;;;;;29.92;16.77;;;;;;;2.92;77.89;98901.04;1725750;82;20965;-56
2022/01/14 09:26:20;;;;;;;21.87;14.13;;;;;;;2.95;77.83;98900.09;1724122;82;21086;-56
2022/01/14 09:28:47;;;;;;;22.93;14.33;;;;;;;2.99;77.70;98898.66;1722130;82;21021;-56
2022/01/14 09:31:14;;;;;;;35.88;21.05;;;;;;;3.06;77.74;98898.61;1723737;82;21040;-57
2022/01/14 09:33:41;;;;;;;30.68;16.62;;;;;;;3.14;77.84;98906.42;1697422;82;21713;-56
2022/01/14 09:36:08;;;;;;;31.52;16.97;;;;;;;3.26;77.56;98901.26;1720178;82;21135;-56
2022/01/14 09:38:35;;;;;;;32.70;18.67;;;;;;;3.25;77.38;98904.45;1728925;82;21084;-56
2022/01/14 09:41:02;;;;;;;21.12;11.55;;;;;;;3.24;77.54;98910.00;1701075;82;20957;-56
2022/01/14 09:43:31;;;;;;;38.60;22.52;;;;;;;3.29;77.22;98908.86;1665107;85;21036;-55
2022/01/14 09:45:58;;;;;;;;;;;;;;;3.22;76.93;98904.86;1658367;85;21084;-57
2022/01/14 09:48:24;;;;;;;25.15;13.08;;;;;;;3.19;77.12;98889.73;1671073;83;20170;-55
2022/01/14 09:50:51;;;;;;;35.90;19.27;;;;;;;3.24;76.90;98881.88;1675611;85;21020;-56
2022/01/14 09:53:18;;;;;;;27.25;16.10;;;;;;;3.15;76.95;98870.57;1723598;82;21033;-56
2022/01/14 09:55:45;;;;;;;22.37;13.58;;;;;;;3.19;77.17;98877.69;1717937;82;21315;-55
2022/01/14 09:58:12;;;;;;;25.57;15.30;;;;;;;3.27;77.20;98881.47;1721786;82;21446;-55
2022/01/14 10:00:39;;;;;;;22.15;12.90;;;;;;;3.29;76.54;98879.39;1725115;82;21676;-56
2022/01/14 10:03:22;;;;;;;22.37;13.90;;;;;;;3.24;76.76;98869.30;1705055;82;21564;-55
2022/01/14 10:05:52;;;;;;;37.83;28.23;;;;;;;3.30;76.87;98852.91;1718216;82;21464;-56
2022/01/14 10:08:25;;;;;;;24.47;15.00;;;;;;;3.40;76.81;98858.11;1716840;82;21574;-56
2022/01/14 10:10:58;;;;;;;21.65;12.40;;;;;;;3.43;76.52;98844.83;1721436;82;21075;-55
2022/01/14 10:13:30;;;;;;;24.52;12.78;;;;;;;3.48;76.55;98849.00;1727304;82;21043;-56
2022/01/14 10:16:06;;;;;;;21.68;11.65;;;;;;;3.50;76.12;98842.91;1710993;82;20996;-56
2022/01/14 10:18:33;;;;;;;27.45;12.47;;;;;;;3.59;75.93;98842.14;1712426;82;20997;-57
2022/01/14 10:21:06;;;;;;;27.40;14.25;;;;;;;3.63;75.87;98848.21;1719375;82;20996;-55
2022/01/14 10:23:43;;;;;;;50.48;25.88;;;;;;;3.55;75.78;98838.27;1704407;82;21132;-55
2022/01/14 10:26:13;;;;;;;32.25;16.65;;;;;;;3.52;76.22;98827.46;1718870;82;21169;-56
2022/01/14 10:28:43;;;;;;;47.45;22.95;;;;;;;3.47;75.82;98827.79;1729166;82;21076;-56
2022/01/14 10:31:08;;;;;;;33.35;17.70;;;;;;;3.50;75.94;98833.53;1707725;82;21039;-56
2022/01/14 10:33:35;;;;;;;37.20;19.10;;;;;;;3.64;75.61;98832.95;1710269;82;21390;-57
2022/01/14 10:36:03;;;;;;;29.85;15.88;;;;;;;3.62;75.84;98827.81;1718160;82;21591;-56
2022/01/14 10:38:46;;;;;;;302.07;117.60;;;;;;;3.66;75.01;98824.17;1720992;82;21044;-56
2022/01/14 10:41:09;;;;;;;;;;;;;;;3.59;75.95;98815.34;1714636;82;21075;-56
2022/01/14 10:43:36;;;;;;;35.33;18.48;;;;;;;3.66;75.90;98796.84;1716279;82;20500;-56
2022/01/14 10:46:07;;;;;;;33.95;18.48;;;;;;;3.76;75.66;98793.71;1712506;82;21011;-56
2022/01/14 10:48:37;;;;;;;34.92;17.65;;;;;;;3.88;75.34;98794.64;1728668;82;21061;-56
2022/01/14 10:51:10;;;;;;;37.03;17.75;;;;;;;3.90;75.34;98775.13;1719946;82;21325;-56
2022/01/14 10:53:43;;;;;;;67.40;28.92;;;;;;;4.12;75.01;98779.61;1705911;82;21132;-56
2022/01/14 10:56:12;;;;;;;27.10;12.82;;;;;;;4.15;74.97;98772.45;1726215;82;21034;-56
2022/01/14 10:58:42;;;;;;;42.17;20.17;;;;;;;4.40;74.27;98756.84;1714436;82;21457;-56
2022/01/14 11:01:18;;;;;;;118.70;42.75;;;;;;;4.46;74.64;98766.18;1721434;82;21669;-56
2022/01/14 11:03:52;;;;;;;213.68;76.47;;;;;;;4.59;74.18;98767.07;1725220;82;21505;-56
2022/01/14 11:06:38;;;;;;;314.05;105.97;;;;;;;4.63;74.00;98758.89;1709324;82;21483;-55
2022/01/14 11:09:14;;;;;;;234.92;79.10;;;;;;;4.63;74.12;98759.70;1722697;82;21191;-57
2022/01/14 11:11:43;;;;;;;232.47;82.35;;;;;;;4.68;74.00;98769.23;1657542;85;21540;-56
2022/01/14 11:14:10;;;;;;;43.70;20.95;;;;;;;4.69;73.69;98766.03;1724831;82;21098;-56
2022/01/14 11:16:37;;;;;;;339.57;116.93;;;;;;;4.67;73.18;98761.41;1722269;82;21020;-56
2022/01/14 11:19:07;;;;;;;305.95;99.17;;;;;;;4.55;73.58;98758.66;1711567;82;21127;-56
2022/01/14 11:24:32;;;;;;;60.30;23.92;;;;;;;4.47;74.09;98758.42;1719723;82;21008;-56
2022/01/14 11:27:02;;;;;;;;;;;;;;;4.45;73.94;98751.13;1698588;82;21162;-56
2022/01/14 11:29:35;;;;;;;48.98;23.95;;;;;;;4.40;74.02;98748.27;1715329;82;20263;-57
2022/01/14 11:32:05;;;;;;;306.17;113.22;;;;;;;4.31;74.28;98735.37;1713433;82;21534;-56
2022/01/14 11:34:35;;;;;;;82.25;30.37;;;;;;;4.32;74.62;98730.30;1714222;82;21020;-55
2022/01/14 11:37:16;;;;;;;82.70;35.25;;;;;;;4.37;74.31;98721.08;1709807;82;21029;-56
2022/01/14 11:40:03;;;;;;;176.90;72.25;;;;;;;4.30;74.57;98717.11;1725008;82;21007;-56
2022/01/14 11:42:50;;;;;;;144.60;60.33;;;;;;;4.27;74.58;98714.03;1715071;82;21074;-56
2022/01/14 11:45:18;;;;;;;96.10;39.55;;;;;;;4.24;74.64;98715.31;1707529;82;21099;-56
2022/01/14 11:47:48;;;;;;;358.70;156.90;;;;;;;4.26;74.56;98714.56;1732211;80;26416;-57
2022/01/14 11:50:27;;;;;;;72.37;34.40;;;;;;;4.25;74.94;98705.69;1743042;80;21142;-57
2022/01/14 11:52:53;;;;;;;47.67;21.62;;;;;;;4.30;75.05;98700.20;1713081;82;21198;-57
2022/01/14 11:55:32;;;;;;;65.97;35.33;;;;;;;4.39;74.76;98695.66;1723358;82;21025;-55
2022/01/14 11:58:07;;;;;;;48.58;24.65;;;;;;;4.38;75.10;98695.36;1713021;82;21096;-56